Aérodrome :
LOGIN :

S'inscrire | Disclaimer

   EN    FR    IT 

 










Légende :    VFR   VFR Marginal   IFR   IFR Intensif   IFR Très Intensif
Visi : 
Plafond : 
>= 8 km
>= 3000ft
5 à 8 km
1000 à 3000 ft
1500m à 5 km
500 à 1000 ft
800 à 1500m
200 à 500 ft
< 800m
< 200 ft
Symboles :   Orages  Brouillard  Fortes neiges  Fortes précipitations  Vent > 20 kt
SIGMETs :   Divers  Orages  Givrage  Turbulence  Onde Orograph.  Cendres Volcan.







- Altitude de l'aérodrome : 1367 ft
- Code IATA : FDH


EDNY - Friedrichshafen

DERNIER METAR :
  • 201450Z 23006KT CAVOK 25/15 Q1018

METARs EXPIRÉS :
  • 201420Z 23005KT CAVOK 26/15 Q1019
  • 201350Z 21005KT 180V250 CAVOK 26/15 Q1019
  • 201320Z 22005KT 180V240 CAVOK 26/14 Q1019
  • 201250Z 21004KT 160V260 CAVOK 26/14 Q1020
  • 201220Z 23005KT 200V260 CAVOK 25/14 Q1020
  • 201150Z 24005KT CAVOK 25/15 Q1020

TAF TAF EDNY
Valide du 20 à 12h jusqu'au 21 à 12h UTC


201100Z 2012/2112 VRB02KT CAVOK
TEMPO 2012/2016 23005KT
BECMG 2110/2112 24010KT
Pas de NOTAMs connus pour ce terrain.



MET'MAP, la Météo Aéronautique d'un coup d'oeil ! - Copyright ORBIFLY Décembre 2007 - Disclaimer

ORBIFLY MET'MAP TEAM :

Programmation & Développement : Alexandra Zaïnal
Conception & Développement : Baudouin d'Aumeries
Co-Programmation & Développement : Marc-Olivier Méhu
Soutien technique & logistique : Manuel Goepfert

Contact : metmap@orbifly.com




SOURCES & CREDITS :

   NOAA